sensor_id;sensor_type;location;lat;lon;timestamp;P1;durP1;ratioP1;P2;durP2;ratioP2
19193;SDS011;9729;52.296;13.260;2022-12-10T00:01:16;51.57;;;22.00;;
19193;SDS011;9729;52.296;13.260;2022-12-10T00:03:44;51.07;;;21.87;;
19193;SDS011;9729;52.296;13.260;2022-12-10T00:06:12;50.27;;;20.47;;
19193;SDS011;9729;52.296;13.260;2022-12-10T00:08:39;55.73;;;21.73;;
19193;SDS011;9729;52.296;13.260;2022-12-10T00:11:10;48.97;;;22.03;;
19193;SDS011;9729;52.296;13.260;2022-12-10T00:13:38;46.87;;;21.60;;
19193;SDS011;9729;52.296;13.260;2022-12-10T00:16:06;47.67;;;19.27;;
19193;SDS011;9729;52.296;13.260;2022-12-10T00:18:35;46.17;;;19.33;;
19193;SDS011;9729;52.296;13.260;2022-12-10T00:21:02;49.63;;;20.17;;
19193;SDS011;9729;52.296;13.260;2022-12-10T00:23:29;52.47;;;20.47;;
19193;SDS011;9729;52.296;13.260;2022-12-10T00:26:03;51.37;;;20.60;;
19193;SDS011;9729;52.296;13.260;2022-12-10T00:28:30;47.93;;;19.73;;
19193;SDS011;9729;52.296;13.260;2022-12-10T00:31:01;49.20;;;20.97;;
19193;SDS011;9729;52.296;13.260;2022-12-10T00:33:28;46.80;;;19.57;;
19193;SDS011;9729;52.296;13.260;2022-12-10T00:35:55;54.20;;;20.33;;
19193;SDS011;9729;52.296;13.260;2022-12-10T00:38:22;52.83;;;20.80;;
19193;SDS011;9729;52.296;13.260;2022-12-10T00:40:48;49.33;;;20.57;;
19193;SDS011;9729;52.296;13.260;2022-12-10T00:43:15;47.00;;;19.87;;
19193;SDS011;9729;52.296;13.260;2022-12-10T00:45:41;48.07;;;20.20;;
19193;SDS011;9729;52.296;13.260;2022-12-10T00:48:07;45.13;;;18.73;;
19193;SDS011;9729;52.296;13.260;2022-12-10T00:50:33;51.07;;;21.00;;
19193;SDS011;9729;52.296;13.260;2022-12-10T00:53:01;46.37;;;19.30;;
19193;SDS011;9729;52.296;13.260;2022-12-10T00:55:27;51.30;;;20.70;;
19193;SDS011;9729;52.296;13.260;2022-12-10T00:57:54;50.37;;;21.43;;
19193;SDS011;9729;52.296;13.260;2022-12-10T01:00:20;47.20;;;19.13;;
19193;SDS011;9729;52.296;13.260;2022-12-10T01:02:47;53.17;;;19.77;;
19193;SDS011;9729;52.296;13.260;2022-12-10T01:05:13;54.27;;;20.00;;
19193;SDS011;9729;52.296;13.260;2022-12-10T01:07:39;44.40;;;20.10;;
19193;SDS011;9729;52.296;13.260;2022-12-10T01:10:10;44.77;;;19.03;;
19193;SDS011;9729;52.296;13.260;2022-12-10T01:12:36;44.53;;;19.67;;
19193;SDS011;9729;52.296;13.260;2022-12-10T01:15:03;47.80;;;20.17;;
19193;SDS011;9729;52.296;13.260;2022-12-10T01:17:30;45.93;;;19.43;;
19193;SDS011;9729;52.296;13.260;2022-12-10T01:19:56;46.87;;;18.67;;
19193;SDS011;9729;52.296;13.260;2022-12-10T01:22:23;39.13;;;16.70;;
19193;SDS011;9729;52.296;13.260;2022-12-10T01:24:51;41.67;;;17.73;;
19193;SDS011;9729;52.296;13.260;2022-12-10T01:27:19;46.00;;;19.17;;
19193;SDS011;9729;52.296;13.260;2022-12-10T01:29:45;44.20;;;17.10;;
19193;SDS011;9729;52.296;13.260;2022-12-10T01:32:11;43.43;;;18.57;;
19193;SDS011;9729;52.296;13.260;2022-12-10T01:34:38;39.53;;;17.97;;
19193;SDS011;9729;52.296;13.260;2022-12-10T01:37:04;45.73;;;16.93;;
19193;SDS011;9729;52.296;13.260;2022-12-10T01:39:31;39.57;;;16.37;;
19193;SDS011;9729;52.296;13.260;2022-12-10T01:41:58;42.63;;;17.10;;
19193;SDS011;9729;52.296;13.260;2022-12-10T01:47:24;39.37;;;18.63;;
19193;SDS011;9729;52.296;13.260;2022-12-10T01:49:51;41.03;;;17.37;;
19193;SDS011;9729;52.296;13.260;2022-12-10T01:52:17;39.60;;;17.40;;
19193;SDS011;9729;52.296;13.260;2022-12-10T01:54:45;38.07;;;16.27;;
19193;SDS011;9729;52.296;13.260;2022-12-10T01:57:12;44.83;;;17.20;;
19193;SDS011;9729;52.296;13.260;2022-12-10T01:59:40;42.63;;;17.33;;
19193;SDS011;9729;52.296;13.260;2022-12-10T02:02:11;39.03;;;18.20;;
19193;SDS011;9729;52.296;13.260;2022-12-10T02:04:41;45.83;;;18.70;;
19193;SDS011;9729;52.296;13.260;2022-12-10T02:07:15;37.77;;;17.03;;
19193;SDS011;9729;52.296;13.260;2022-12-10T02:09:50;33.53;;;15.57;;
19193;SDS011;9729;52.296;13.260;2022-12-10T02:12:21;41.70;;;17.07;;
19193;SDS011;9729;52.296;13.260;2022-12-10T02:14:51;38.90;;;16.47;;
19193;SDS011;9729;52.296;13.260;2022-12-10T02:17:25;38.60;;;17.90;;
19193;SDS011;9729;52.296;13.260;2022-12-10T02:20:01;35.03;;;16.43;;
19193;SDS011;9729;52.296;13.260;2022-12-10T02:22:33;35.13;;;15.83;;
19193;SDS011;9729;52.296;13.260;2022-12-10T02:25:00;39.50;;;17.70;;
19193;SDS011;9729;52.296;13.260;2022-12-10T02:27:30;41.37;;;18.00;;
19193;SDS011;9729;52.296;13.260;2022-12-10T02:30:02;37.47;;;17.17;;
19193;SDS011;9729;52.296;13.260;2022-12-10T02:32:30;36.17;;;16.37;;
19193;SDS011;9729;52.296;13.260;2022-12-10T02:34:58;37.60;;;17.73;;
19193;SDS011;9729;52.296;13.260;2022-12-10T02:37:27;39.50;;;16.97;;
19193;SDS011;9729;52.296;13.260;2022-12-10T02:39:56;38.93;;;17.30;;
19193;SDS011;9729;52.296;13.260;2022-12-10T02:42:26;33.07;;;16.33;;
19193;SDS011;9729;52.296;13.260;2022-12-10T02:44:55;38.20;;;17.50;;
19193;SDS011;9729;52.296;13.260;2022-12-10T02:47:25;31.47;;;16.87;;
19193;SDS011;9729;52.296;13.260;2022-12-10T02:49:52;40.30;;;16.70;;
19193;SDS011;9729;52.296;13.260;2022-12-10T02:52:20;35.43;;;17.23;;
19193;SDS011;9729;52.296;13.260;2022-12-10T02:54:47;39.73;;;17.30;;
19193;SDS011;9729;52.296;13.260;2022-12-10T02:57:18;39.77;;;17.77;;
19193;SDS011;9729;52.296;13.260;2022-12-10T03:00:02;37.77;;;17.23;;
19193;SDS011;9729;52.296;13.260;2022-12-10T03:02:34;32.93;;;16.03;;
19193;SDS011;9729;52.296;13.260;2022-12-10T03:05:09;37.00;;;17.20;;
19193;SDS011;9729;52.296;13.260;2022-12-10T03:07:41;37.00;;;15.53;;
19193;SDS011;9729;52.296;13.260;2022-12-10T03:10:12;36.57;;;15.57;;
19193;SDS011;9729;52.296;13.260;2022-12-10T03:12:43;35.67;;;17.67;;
19193;SDS011;9729;52.296;13.260;2022-12-10T03:15:13;36.83;;;17.17;;
19193;SDS011;9729;52.296;13.260;2022-12-10T03:17:42;37.90;;;17.47;;
19193;SDS011;9729;52.296;13.260;2022-12-10T03:20:11;40.87;;;18.70;;
19193;SDS011;9729;52.296;13.260;2022-12-10T03:22:39;38.63;;;18.63;;
19193;SDS011;9729;52.296;13.260;2022-12-10T03:25:08;41.77;;;17.50;;
19193;SDS011;9729;52.296;13.260;2022-12-10T03:27:36;39.77;;;18.10;;
19193;SDS011;9729;52.296;13.260;2022-12-10T03:30:04;40.27;;;18.03;;
19193;SDS011;9729;52.296;13.260;2022-12-10T03:32:32;40.43;;;19.13;;
19193;SDS011;9729;52.296;13.260;2022-12-10T03:35:00;38.53;;;18.33;;
19193;SDS011;9729;52.296;13.260;2022-12-10T03:37:27;35.77;;;17.70;;
19193;SDS011;9729;52.296;13.260;2022-12-10T03:39:55;33.60;;;15.60;;
19193;SDS011;9729;52.296;13.260;2022-12-10T03:42:21;41.43;;;17.87;;
19193;SDS011;9729;52.296;13.260;2022-12-10T03:44:49;38.83;;;17.50;;
19193;SDS011;9729;52.296;13.260;2022-12-10T03:47:16;42.23;;;18.07;;
19193;SDS011;9729;52.296;13.260;2022-12-10T03:49:42;40.23;;;19.20;;
19193;SDS011;9729;52.296;13.260;2022-12-10T03:52:10;43.03;;;18.80;;
19193;SDS011;9729;52.296;13.260;2022-12-10T03:54:37;46.97;;;20.50;;
19193;SDS011;9729;52.296;13.260;2022-12-10T03:57:03;44.53;;;19.97;;
19193;SDS011;9729;52.296;13.260;2022-12-10T03:59:30;45.13;;;18.70;;
19193;SDS011;9729;52.296;13.260;2022-12-10T04:01:56;38.70;;;18.47;;
19193;SDS011;9729;52.296;13.260;2022-12-10T04:04:22;41.53;;;19.37;;
19193;SDS011;9729;52.296;13.260;2022-12-10T04:06:49;40.27;;;19.17;;
19193;SDS011;9729;52.296;13.260;2022-12-10T04:09:16;42.90;;;19.23;;
19193;SDS011;9729;52.296;13.260;2022-12-10T04:11:43;39.00;;;18.00;;
19193;SDS011;9729;52.296;13.260;2022-12-10T04:14:12;41.50;;;18.30;;
19193;SDS011;9729;52.296;13.260;2022-12-10T04:16:57;44.30;;;18.07;;
19193;SDS011;9729;52.296;13.260;2022-12-10T04:19:23;42.17;;;18.60;;
19193;SDS011;9729;52.296;13.260;2022-12-10T04:21:50;43.20;;;17.73;;
19193;SDS011;9729;52.296;13.260;2022-12-10T04:24:36;39.07;;;18.00;;
19193;SDS011;9729;52.296;13.260;2022-12-10T04:27:21;44.07;;;18.13;;
19193;SDS011;9729;52.296;13.260;2022-12-10T04:29:49;47.00;;;19.40;;
19193;SDS011;9729;52.296;13.260;2022-12-10T04:32:16;39.43;;;17.43;;
19193;SDS011;9729;52.296;13.260;2022-12-10T04:34:43;41.80;;;19.20;;
19193;SDS011;9729;52.296;13.260;2022-12-10T04:37:09;40.73;;;19.03;;
19193;SDS011;9729;52.296;13.260;2022-12-10T04:39:38;39.03;;;17.47;;
19193;SDS011;9729;52.296;13.260;2022-12-10T04:42:05;39.63;;;18.20;;
19193;SDS011;9729;52.296;13.260;2022-12-10T04:44:32;41.87;;;17.77;;
19193;SDS011;9729;52.296;13.260;2022-12-10T04:46:59;42.47;;;19.50;;
19193;SDS011;9729;52.296;13.260;2022-12-10T04:49:29;41.97;;;18.37;;
19193;SDS011;9729;52.296;13.260;2022-12-10T04:51:55;42.30;;;18.63;;
19193;SDS011;9729;52.296;13.260;2022-12-10T04:54:22;42.40;;;19.10;;
19193;SDS011;9729;52.296;13.260;2022-12-10T04:56:50;35.77;;;17.40;;
19193;SDS011;9729;52.296;13.260;2022-12-10T04:59:18;40.13;;;19.13;;
19193;SDS011;9729;52.296;13.260;2022-12-10T05:01:44;38.13;;;18.17;;
19193;SDS011;9729;52.296;13.260;2022-12-10T05:04:11;43.03;;;19.93;;
19193;SDS011;9729;52.296;13.260;2022-12-10T05:06:39;39.77;;;18.93;;
19193;SDS011;9729;52.296;13.260;2022-12-10T05:09:06;37.00;;;18.53;;
19193;SDS011;9729;52.296;13.260;2022-12-10T05:11:33;48.87;;;19.40;;
19193;SDS011;9729;52.296;13.260;2022-12-10T05:14:02;42.17;;;18.87;;
19193;SDS011;9729;52.296;13.260;2022-12-10T05:16:29;42.10;;;18.97;;
19193;SDS011;9729;52.296;13.260;2022-12-10T05:18:56;47.70;;;19.73;;
19193;SDS011;9729;52.296;13.260;2022-12-10T05:21:24;43.27;;;19.30;;
19193;SDS011;9729;52.296;13.260;2022-12-10T05:24:12;44.77;;;17.60;;
19193;SDS011;9729;52.296;13.260;2022-12-10T05:26:38;39.40;;;19.20;;
19193;SDS011;9729;52.296;13.260;2022-12-10T05:29:06;37.87;;;18.23;;
19193;SDS011;9729;52.296;13.260;2022-12-10T05:31:33;42.47;;;18.57;;
19193;SDS011;9729;52.296;13.260;2022-12-10T05:33:59;41.43;;;19.27;;
19193;SDS011;9729;52.296;13.260;2022-12-10T05:36:27;40.87;;;18.80;;
19193;SDS011;9729;52.296;13.260;2022-12-10T05:38:55;43.37;;;19.37;;
19193;SDS011;9729;52.296;13.260;2022-12-10T05:41:23;40.77;;;18.43;;
19193;SDS011;9729;52.296;13.260;2022-12-10T05:43:50;41.23;;;17.13;;
19193;SDS011;9729;52.296;13.260;2022-12-10T05:46:19;38.93;;;18.83;;
19193;SDS011;9729;52.296;13.260;2022-12-10T05:48:47;41.33;;;18.53;;
19193;SDS011;9729;52.296;13.260;2022-12-10T05:51:15;41.53;;;18.80;;
19193;SDS011;9729;52.296;13.260;2022-12-10T05:53:43;44.33;;;19.00;;
19193;SDS011;9729;52.296;13.260;2022-12-10T05:56:10;36.57;;;18.40;;
19193;SDS011;9729;52.296;13.260;2022-12-10T05:58:40;41.60;;;19.53;;
19193;SDS011;9729;52.296;13.260;2022-12-10T06:01:08;40.23;;;20.20;;
19193;SDS011;9729;52.296;13.260;2022-12-10T06:03:37;42.70;;;20.63;;
19193;SDS011;9729;52.296;13.260;2022-12-10T06:06:04;38.33;;;19.40;;
19193;SDS011;9729;52.296;13.260;2022-12-10T06:08:31;38.17;;;17.67;;
19193;SDS011;9729;52.296;13.260;2022-12-10T06:11:00;40.43;;;18.87;;
19193;SDS011;9729;52.296;13.260;2022-12-10T06:13:26;41.83;;;19.03;;
19193;SDS011;9729;52.296;13.260;2022-12-10T06:15:53;42.30;;;19.13;;
19193;SDS011;9729;52.296;13.260;2022-12-10T06:18:19;42.87;;;18.83;;
19193;SDS011;9729;52.296;13.260;2022-12-10T06:20:48;44.40;;;18.67;;
19193;SDS011;9729;52.296;13.260;2022-12-10T06:23:17;47.40;;;19.70;;
19193;SDS011;9729;52.296;13.260;2022-12-10T06:25:43;45.37;;;20.03;;
19193;SDS011;9729;52.296;13.260;2022-12-10T06:28:09;42.67;;;20.07;;
19193;SDS011;9729;52.296;13.260;2022-12-10T06:30:36;41.67;;;18.03;;
19193;SDS011;9729;52.296;13.260;2022-12-10T06:33:02;40.53;;;18.17;;
19193;SDS011;9729;52.296;13.260;2022-12-10T06:35:28;40.70;;;20.07;;
19193;SDS011;9729;52.296;13.260;2022-12-10T06:37:56;39.87;;;19.63;;
19193;SDS011;9729;52.296;13.260;2022-12-10T06:40:22;39.90;;;18.53;;
19193;SDS011;9729;52.296;13.260;2022-12-10T06:42:51;37.33;;;19.67;;
19193;SDS011;9729;52.296;13.260;2022-12-10T06:45:18;39.90;;;20.57;;
19193;SDS011;9729;52.296;13.260;2022-12-10T06:47:44;45.90;;;20.73;;
19193;SDS011;9729;52.296;13.260;2022-12-10T06:50:11;40.67;;;17.60;;
19193;SDS011;9729;52.296;13.260;2022-12-10T06:52:37;39.07;;;19.80;;
19193;SDS011;9729;52.296;13.260;2022-12-10T06:55:05;39.83;;;17.77;;
19193;SDS011;9729;52.296;13.260;2022-12-10T06:57:32;45.20;;;19.87;;
19193;SDS011;9729;52.296;13.260;2022-12-10T06:59:58;43.10;;;21.00;;
19193;SDS011;9729;52.296;13.260;2022-12-10T07:02:24;52.93;;;24.83;;
19193;SDS011;9729;52.296;13.260;2022-12-10T07:04:54;54.83;;;24.07;;
19193;SDS011;9729;52.296;13.260;2022-12-10T07:07:21;54.27;;;24.93;;
19193;SDS011;9729;52.296;13.260;2022-12-10T07:09:48;46.00;;;21.83;;
19193;SDS011;9729;52.296;13.260;2022-12-10T07:12:15;60.13;;;24.17;;
19193;SDS011;9729;52.296;13.260;2022-12-10T07:14:42;49.23;;;21.10;;
19193;SDS011;9729;52.296;13.260;2022-12-10T07:17:12;40.10;;;19.13;;
19193;SDS011;9729;52.296;13.260;2022-12-10T07:19:38;48.73;;;20.73;;
19193;SDS011;9729;52.296;13.260;2022-12-10T07:22:05;41.40;;;20.40;;
19193;SDS011;9729;52.296;13.260;2022-12-10T07:24:31;44.77;;;21.73;;
19193;SDS011;9729;52.296;13.260;2022-12-10T07:26:57;45.33;;;19.77;;
19193;SDS011;9729;52.296;13.260;2022-12-10T07:29:25;45.43;;;20.17;;
19193;SDS011;9729;52.296;13.260;2022-12-10T07:31:52;46.70;;;20.47;;
19193;SDS011;9729;52.296;13.260;2022-12-10T07:34:19;47.93;;;19.37;;
19193;SDS011;9729;52.296;13.260;2022-12-10T07:36:46;46.60;;;19.83;;
19193;SDS011;9729;52.296;13.260;2022-12-10T07:39:15;42.27;;;19.67;;
19193;SDS011;9729;52.296;13.260;2022-12-10T07:41:43;51.70;;;20.37;;
19193;SDS011;9729;52.296;13.260;2022-12-10T07:44:11;44.70;;;19.40;;
19193;SDS011;9729;52.296;13.260;2022-12-10T07:46:39;42.43;;;19.73;;
19193;SDS011;9729;52.296;13.260;2022-12-10T07:49:06;46.53;;;21.23;;
19193;SDS011;9729;52.296;13.260;2022-12-10T07:51:33;39.30;;;19.47;;
19193;SDS011;9729;52.296;13.260;2022-12-10T07:53:59;46.17;;;20.20;;
19193;SDS011;9729;52.296;13.260;2022-12-10T07:56:25;38.17;;;19.77;;
19193;SDS011;9729;52.296;13.260;2022-12-10T07:58:52;37.87;;;18.57;;
19193;SDS011;9729;52.296;13.260;2022-12-10T08:01:19;38.97;;;19.70;;
19193;SDS011;9729;52.296;13.260;2022-12-10T08:03:54;42.40;;;20.67;;
19193;SDS011;9729;52.296;13.260;2022-12-10T08:06:24;40.13;;;18.80;;
19193;SDS011;9729;52.296;13.260;2022-12-10T08:08:51;43.53;;;20.00;;
19193;SDS011;9729;52.296;13.260;2022-12-10T08:11:18;41.03;;;20.03;;
19193;SDS011;9729;52.296;13.260;2022-12-10T08:13:46;37.33;;;18.37;;
19193;SDS011;9729;52.296;13.260;2022-12-10T08:16:13;37.33;;;18.83;;
19193;SDS011;9729;52.296;13.260;2022-12-10T08:18:42;41.87;;;19.27;;
19193;SDS011;9729;52.296;13.260;2022-12-10T08:21:11;41.93;;;19.87;;
19193;SDS011;9729;52.296;13.260;2022-12-10T08:23:40;40.47;;;19.70;;
19193;SDS011;9729;52.296;13.260;2022-12-10T08:26:07;38.10;;;18.63;;
19193;SDS011;9729;52.296;13.260;2022-12-10T08:28:35;36.90;;;17.37;;
19193;SDS011;9729;52.296;13.260;2022-12-10T08:31:02;38.43;;;17.83;;
19193;SDS011;9729;52.296;13.260;2022-12-10T08:33:28;41.57;;;18.37;;
19193;SDS011;9729;52.296;13.260;2022-12-10T08:35:56;36.33;;;18.50;;
19193;SDS011;9729;52.296;13.260;2022-12-10T08:38:24;37.63;;;18.37;;
19193;SDS011;9729;52.296;13.260;2022-12-10T08:40:50;47.23;;;20.23;;
19193;SDS011;9729;52.296;13.260;2022-12-10T08:43:19;67.60;;;26.17;;
19193;SDS011;9729;52.296;13.260;2022-12-10T08:45:45;50.00;;;23.47;;
19193;SDS011;9729;52.296;13.260;2022-12-10T08:48:11;56.33;;;25.40;;
19193;SDS011;9729;52.296;13.260;2022-12-10T08:50:38;55.73;;;23.10;;
19193;SDS011;9729;52.296;13.260;2022-12-10T08:53:04;37.57;;;18.80;;
19193;SDS011;9729;52.296;13.260;2022-12-10T08:55:32;39.20;;;18.70;;
19193;SDS011;9729;52.296;13.260;2022-12-10T08:57:58;39.00;;;19.60;;
19193;SDS011;9729;52.296;13.260;2022-12-10T09:00:25;39.37;;;17.10;;
19193;SDS011;9729;52.296;13.260;2022-12-10T09:02:52;40.00;;;18.87;;
19193;SDS011;9729;52.296;13.260;2022-12-10T09:05:20;38.47;;;18.50;;
19193;SDS011;9729;52.296;13.260;2022-12-10T09:07:47;35.87;;;18.43;;
19193;SDS011;9729;52.296;13.260;2022-12-10T09:10:14;34.37;;;17.60;;
19193;SDS011;9729;52.296;13.260;2022-12-10T09:12:42;37.40;;;18.83;;
19193;SDS011;9729;52.296;13.260;2022-12-10T09:15:09;34.87;;;16.70;;
19193;SDS011;9729;52.296;13.260;2022-12-10T09:17:38;39.80;;;17.93;;
19193;SDS011;9729;52.296;13.260;2022-12-10T09:20:05;37.90;;;17.97;;
19193;SDS011;9729;52.296;13.260;2022-12-10T09:22:32;34.13;;;15.93;;
19193;SDS011;9729;52.296;13.260;2022-12-10T09:25:01;38.33;;;17.07;;
19193;SDS011;9729;52.296;13.260;2022-12-10T09:27:29;34.13;;;17.77;;
19193;SDS011;9729;52.296;13.260;2022-12-10T09:29:57;37.97;;;18.73;;
19193;SDS011;9729;52.296;13.260;2022-12-10T09:32:24;31.67;;;15.30;;
19193;SDS011;9729;52.296;13.260;2022-12-10T09:34:50;32.20;;;15.70;;
19193;SDS011;9729;52.296;13.260;2022-12-10T09:37:17;37.70;;;17.10;;
19193;SDS011;9729;52.296;13.260;2022-12-10T09:39:43;30.50;;;14.17;;
19193;SDS011;9729;52.296;13.260;2022-12-10T09:42:16;31.73;;;15.90;;
19193;SDS011;9729;52.296;13.260;2022-12-10T09:44:50;28.97;;;16.03;;
19193;SDS011;9729;52.296;13.260;2022-12-10T09:47:21;34.47;;;16.57;;
19193;SDS011;9729;52.296;13.260;2022-12-10T09:49:53;27.13;;;15.53;;
19193;SDS011;9729;52.296;13.260;2022-12-10T09:52:23;32.10;;;16.03;;
19193;SDS011;9729;52.296;13.260;2022-12-10T09:54:53;32.73;;;16.10;;
19193;SDS011;9729;52.296;13.260;2022-12-10T09:57:22;35.37;;;16.40;;
19193;SDS011;9729;52.296;13.260;2022-12-10T09:59:51;33.80;;;16.53;;
19193;SDS011;9729;52.296;13.260;2022-12-10T10:02:21;33.67;;;16.30;;
19193;SDS011;9729;52.296;13.260;2022-12-10T10:04:49;32.87;;;15.87;;
19193;SDS011;9729;52.296;13.260;2022-12-10T10:07:17;27.83;;;14.07;;
19193;SDS011;9729;52.296;13.260;2022-12-10T10:09:46;29.73;;;14.87;;
19193;SDS011;9729;52.296;13.260;2022-12-10T10:12:12;26.30;;;12.37;;
19193;SDS011;9729;52.296;13.260;2022-12-10T10:14:39;31.07;;;14.43;;
19193;SDS011;9729;52.296;13.260;2022-12-10T10:17:08;30.10;;;16.33;;
19193;SDS011;9729;52.296;13.260;2022-12-10T10:19:36;24.17;;;13.93;;
19193;SDS011;9729;52.296;13.260;2022-12-10T10:22:04;29.17;;;16.37;;
19193;SDS011;9729;52.296;13.260;2022-12-10T10:24:33;31.30;;;16.33;;
19193;SDS011;9729;52.296;13.260;2022-12-10T10:27:01;30.17;;;13.77;;
19193;SDS011;9729;52.296;13.260;2022-12-10T10:29:37;26.20;;;13.97;;
19193;SDS011;9729;52.296;13.260;2022-12-10T10:32:11;30.47;;;16.10;;
19193;SDS011;9729;52.296;13.260;2022-12-10T10:34:41;28.20;;;16.03;;
19193;SDS011;9729;52.296;13.260;2022-12-10T10:37:12;35.67;;;17.10;;
19193;SDS011;9729;52.296;13.260;2022-12-10T10:39:42;31.63;;;16.33;;
19193;SDS011;9729;52.296;13.260;2022-12-10T10:42:14;27.80;;;14.63;;
19193;SDS011;9729;52.296;13.260;2022-12-10T10:44:49;30.70;;;14.50;;
19193;SDS011;9729;52.296;13.260;2022-12-10T10:47:26;29.73;;;15.60;;
19193;SDS011;9729;52.296;13.260;2022-12-10T10:49:55;26.83;;;14.73;;
19193;SDS011;9729;52.296;13.260;2022-12-10T10:52:22;26.47;;;14.00;;
19193;SDS011;9729;52.296;13.260;2022-12-10T10:54:49;28.23;;;15.00;;
19193;SDS011;9729;52.296;13.260;2022-12-10T10:57:17;35.23;;;14.17;;
19193;SDS011;9729;52.296;13.260;2022-12-10T10:59:48;27.00;;;15.40;;
19193;SDS011;9729;52.296;13.260;2022-12-10T11:02:23;21.33;;;11.50;;
19193;SDS011;9729;52.296;13.260;2022-12-10T11:04:52;27.53;;;15.03;;
19193;SDS011;9729;52.296;13.260;2022-12-10T11:07:22;27.80;;;15.40;;
19193;SDS011;9729;52.296;13.260;2022-12-10T11:09:52;32.10;;;13.70;;
19193;SDS011;9729;52.296;13.260;2022-12-10T11:12:21;28.70;;;14.33;;
19193;SDS011;9729;52.296;13.260;2022-12-10T11:14:54;26.13;;;12.50;;
19193;SDS011;9729;52.296;13.260;2022-12-10T11:17:21;25.30;;;14.80;;
19193;SDS011;9729;52.296;13.260;2022-12-10T11:19:53;28.37;;;14.60;;
19193;SDS011;9729;52.296;13.260;2022-12-10T11:22:23;25.00;;;13.77;;
19193;SDS011;9729;52.296;13.260;2022-12-10T11:24:50;26.40;;;15.17;;
19193;SDS011;9729;52.296;13.260;2022-12-10T11:27:22;28.07;;;14.27;;
19193;SDS011;9729;52.296;13.260;2022-12-10T11:30:02;25.80;;;15.13;;
19193;SDS011;9729;52.296;13.260;2022-12-10T11:32:35;29.70;;;14.73;;
19193;SDS011;9729;52.296;13.260;2022-12-10T11:35:10;28.10;;;14.77;;
19193;SDS011;9729;52.296;13.260;2022-12-10T11:37:42;37.23;;;15.97;;
19193;SDS011;9729;52.296;13.260;2022-12-10T11:40:28;27.23;;;15.50;;
19193;SDS011;9729;52.296;13.260;2022-12-10T11:43:01;26.53;;;15.40;;
19193;SDS011;9729;52.296;13.260;2022-12-10T11:45:47;28.53;;;15.50;;
19193;SDS011;9729;52.296;13.260;2022-12-10T11:48:22;29.53;;;15.57;;
19193;SDS011;9729;52.296;13.260;2022-12-10T11:50:59;30.77;;;16.07;;
19193;SDS011;9729;52.296;13.260;2022-12-10T11:53:34;28.10;;;15.87;;
19193;SDS011;9729;52.296;13.260;2022-12-10T11:56:10;27.07;;;14.67;;
19193;SDS011;9729;52.296;13.260;2022-12-10T11:58:47;30.67;;;16.33;;
19193;SDS011;9729;52.296;13.260;2022-12-10T12:01:21;31.43;;;16.73;;
19193;SDS011;9729;52.296;13.260;2022-12-10T12:04:05;30.87;;;16.93;;
19193;SDS011;9729;52.296;13.260;2022-12-10T12:06:53;31.13;;;16.67;;
19193;SDS011;9729;52.296;13.260;2022-12-10T12:09:28;30.33;;;16.17;;
19193;SDS011;9729;52.296;13.260;2022-12-10T12:12:06;23.30;;;13.00;;
19193;SDS011;9729;52.296;13.260;2022-12-10T12:14:40;31.27;;;16.13;;
19193;SDS011;9729;52.296;13.260;2022-12-10T12:17:10;29.73;;;16.03;;
19193;SDS011;9729;52.296;13.260;2022-12-10T12:19:39;37.23;;;18.00;;
19193;SDS011;9729;52.296;13.260;2022-12-10T12:22:07;28.50;;;16.03;;
19193;SDS011;9729;52.296;13.260;2022-12-10T12:24:42;31.20;;;18.03;;
19193;SDS011;9729;52.296;13.260;2022-12-10T12:27:12;31.63;;;17.43;;
19193;SDS011;9729;52.296;13.260;2022-12-10T12:29:43;30.23;;;14.83;;
19193;SDS011;9729;52.296;13.260;2022-12-10T12:32:15;31.77;;;16.53;;
19193;SDS011;9729;52.296;13.260;2022-12-10T12:34:46;34.07;;;16.27;;
19193;SDS011;9729;52.296;13.260;2022-12-10T12:37:16;35.23;;;17.60;;
19193;SDS011;9729;52.296;13.260;2022-12-10T12:39:45;37.80;;;16.57;;
19193;SDS011;9729;52.296;13.260;2022-12-10T12:42:16;31.97;;;17.33;;
19193;SDS011;9729;52.296;13.260;2022-12-10T12:44:48;33.67;;;17.07;;
19193;SDS011;9729;52.296;13.260;2022-12-10T12:47:28;30.60;;;16.83;;
19193;SDS011;9729;52.296;13.260;2022-12-10T12:49:59;32.20;;;17.17;;
19193;SDS011;9729;52.296;13.260;2022-12-10T12:52:29;31.03;;;16.50;;
19193;SDS011;9729;52.296;13.260;2022-12-10T12:55:03;32.80;;;18.43;;
19193;SDS011;9729;52.296;13.260;2022-12-10T12:57:34;34.07;;;17.50;;
19193;SDS011;9729;52.296;13.260;2022-12-10T13:00:05;35.50;;;19.10;;
19193;SDS011;9729;52.296;13.260;2022-12-10T13:02:44;30.67;;;18.20;;
19193;SDS011;9729;52.296;13.260;2022-12-10T13:05:16;36.43;;;17.90;;
19193;SDS011;9729;52.296;13.260;2022-12-10T13:10:59;30.40;;;17.30;;
19193;SDS011;9729;52.296;13.260;2022-12-10T13:13:29;37.87;;;18.47;;
19193;SDS011;9729;52.296;13.260;2022-12-10T13:22:01;48.97;;;20.13;;
19193;SDS011;9729;52.296;13.260;2022-12-10T13:27:40;40.40;;;17.70;;
19193;SDS011;9729;52.296;13.260;2022-12-10T13:33:02;39.13;;;17.90;;
19193;SDS011;9729;52.296;13.260;2022-12-10T13:35:31;37.87;;;18.60;;
19193;SDS011;9729;52.296;13.260;2022-12-10T13:38:17;40.23;;;17.73;;
19193;SDS011;9729;52.296;13.260;2022-12-10T13:40:49;34.73;;;19.93;;
19193;SDS011;9729;52.296;13.260;2022-12-10T13:43:42;38.53;;;19.03;;
19193;SDS011;9729;52.296;13.260;2022-12-10T13:46:50;35.20;;;19.23;;
19193;SDS011;9729;52.296;13.260;2022-12-10T13:49:19;34.33;;;17.20;;
19193;SDS011;9729;52.296;13.260;2022-12-10T13:51:49;40.10;;;19.37;;
19193;SDS011;9729;52.296;13.260;2022-12-10T13:54:28;36.37;;;17.67;;
19193;SDS011;9729;52.296;13.260;2022-12-10T13:57:02;34.83;;;17.93;;
19193;SDS011;9729;52.296;13.260;2022-12-10T13:59:37;35.87;;;17.80;;
19193;SDS011;9729;52.296;13.260;2022-12-10T14:02:21;39.50;;;18.57;;
19193;SDS011;9729;52.296;13.260;2022-12-10T14:05:03;34.07;;;17.10;;
19193;SDS011;9729;52.296;13.260;2022-12-10T14:07:38;33.63;;;17.93;;
19193;SDS011;9729;52.296;13.260;2022-12-10T14:10:07;34.53;;;17.70;;
19193;SDS011;9729;52.296;13.260;2022-12-10T14:12:40;31.80;;;16.70;;
19193;SDS011;9729;52.296;13.260;2022-12-10T14:15:14;39.37;;;20.33;;
19193;SDS011;9729;52.296;13.260;2022-12-10T14:17:44;32.57;;;18.07;;
19193;SDS011;9729;52.296;13.260;2022-12-10T14:20:13;33.67;;;18.63;;
19193;SDS011;9729;52.296;13.260;2022-12-10T14:22:43;36.30;;;19.03;;
19193;SDS011;9729;52.296;13.260;2022-12-10T14:25:11;43.13;;;19.77;;
19193;SDS011;9729;52.296;13.260;2022-12-10T14:27:40;37.20;;;18.07;;
19193;SDS011;9729;52.296;13.260;2022-12-10T14:30:14;34.83;;;18.77;;
19193;SDS011;9729;52.296;13.260;2022-12-10T14:32:42;38.73;;;18.53;;
19193;SDS011;9729;52.296;13.260;2022-12-10T14:35:12;32.30;;;18.17;;
19193;SDS011;9729;52.296;13.260;2022-12-10T14:37:40;34.20;;;17.73;;
19193;SDS011;9729;52.296;13.260;2022-12-10T14:40:08;31.73;;;17.73;;
19193;SDS011;9729;52.296;13.260;2022-12-10T14:42:37;33.73;;;17.53;;
19193;SDS011;9729;52.296;13.260;2022-12-10T14:45:04;32.27;;;18.90;;
19193;SDS011;9729;52.296;13.260;2022-12-10T14:47:35;35.30;;;19.83;;
19193;SDS011;9729;52.296;13.260;2022-12-10T14:50:03;34.43;;;19.37;;
19193;SDS011;9729;52.296;13.260;2022-12-10T14:52:31;39.07;;;20.67;;